sensor_id;sensor_type;location;lat;lon;timestamp;P1;durP1;ratioP1;P2;durP2;ratioP2
50104;SDS011;47690;39.202;-77.198;2023-12-04T00:01:23;8.95;;;4.63;;
50104;SDS011;47690;39.202;-77.198;2023-12-04T00:04:12;7.28;;;4.80;;
50104;SDS011;47690;39.202;-77.198;2023-12-04T00:07:06;6.97;;;5.00;;
50104;SDS011;47690;39.202;-77.198;2023-12-04T00:09:57;8.63;;;5.55;;
50104;SDS011;47690;39.202;-77.198;2023-12-04T00:12:46;7.47;;;5.03;;
50104;SDS011;47690;39.202;-77.198;2023-12-04T00:15:35;10.75;;;5.88;;
50104;SDS011;47690;39.202;-77.198;2023-12-04T00:18:26;6.40;;;4.50;;
50104;SDS011;47690;39.202;-77.198;2023-12-04T00:21:17;9.27;;;5.28;;
50104;SDS011;47690;39.202;-77.198;2023-12-04T00:24:06;7.80;;;5.25;;
50104;SDS011;47690;39.202;-77.198;2023-12-04T00:26:57;6.15;;;4.72;;
50104;SDS011;47690;39.202;-77.198;2023-12-04T00:29:48;7.55;;;4.97;;
50104;SDS011;47690;39.202;-77.198;2023-12-04T00:33:09;7.47;;;4.82;;
50104;SDS011;47690;39.202;-77.198;2023-12-04T00:35:59;6.22;;;4.75;;
50104;SDS011;47690;39.202;-77.198;2023-12-04T00:38:49;8.23;;;5.10;;
50104;SDS011;47690;39.202;-77.198;2023-12-04T00:41:39;8.25;;;5.22;;
50104;SDS011;47690;39.202;-77.198;2023-12-04T00:44:30;7.80;;;5.10;;
50104;SDS011;47690;39.202;-77.198;2023-12-04T00:47:19;7.65;;;5.13;;
50104;SDS011;47690;39.202;-77.198;2023-12-04T00:50:10;8.98;;;5.20;;
50104;SDS011;47690;39.202;-77.198;2023-12-04T00:53:00;8.95;;;5.18;;
50104;SDS011;47690;39.202;-77.198;2023-12-04T00:55:51;7.55;;;5.00;;
50104;SDS011;47690;39.202;-77.198;2023-12-04T00:58:39;6.75;;;4.88;;
50104;SDS011;47690;39.202;-77.198;2023-12-04T01:01:29;6.60;;;4.38;;
50104;SDS011;47690;39.202;-77.198;2023-12-04T01:04:19;6.57;;;4.63;;
50104;SDS011;47690;39.202;-77.198;2023-12-04T01:07:09;6.45;;;4.50;;
50104;SDS011;47690;39.202;-77.198;2023-12-04T01:09:57;5.22;;;4.13;;
50104;SDS011;47690;39.202;-77.198;2023-12-04T01:12:49;7.43;;;4.80;;
50104;SDS011;47690;39.202;-77.198;2023-12-04T01:15:38;9.73;;;4.95;;
50104;SDS011;47690;39.202;-77.198;2023-12-04T01:18:31;5.85;;;4.53;;
50104;SDS011;47690;39.202;-77.198;2023-12-04T01:21:21;7.03;;;4.60;;
50104;SDS011;47690;39.202;-77.198;2023-12-04T01:24:13;7.53;;;4.28;;
50104;SDS011;47690;39.202;-77.198;2023-12-04T01:27:04;6.45;;;4.70;;
50104;SDS011;47690;39.202;-77.198;2023-12-04T01:29:55;9.00;;;5.05;;
50104;SDS011;47690;39.202;-77.198;2023-12-04T01:32:44;8.75;;;5.03;;
50104;SDS011;47690;39.202;-77.198;2023-12-04T01:35:39;7.75;;;5.22;;
50104;SDS011;47690;39.202;-77.198;2023-12-04T01:38:31;11.60;;;7.05;;
50104;SDS011;47690;39.202;-77.198;2023-12-04T01:41:20;17.33;;;9.77;;
50104;SDS011;47690;39.202;-77.198;2023-12-04T01:44:09;17.42;;;10.05;;
50104;SDS011;47690;39.202;-77.198;2023-12-04T01:46:59;12.18;;;7.20;;
50104;SDS011;47690;39.202;-77.198;2023-12-04T01:49:52;8.07;;;5.72;;
50104;SDS011;47690;39.202;-77.198;2023-12-04T01:52:42;7.38;;;5.00;;
50104;SDS011;47690;39.202;-77.198;2023-12-04T01:55:34;5.93;;;4.60;;
50104;SDS011;47690;39.202;-77.198;2023-12-04T01:58:27;6.63;;;4.50;;
50104;SDS011;47690;39.202;-77.198;2023-12-04T02:01:17;5.97;;;4.60;;
50104;SDS011;47690;39.202;-77.198;2023-12-04T02:04:09;5.55;;;4.47;;
50104;SDS011;47690;39.202;-77.198;2023-12-04T02:07:00;5.85;;;4.15;;
50104;SDS011;47690;39.202;-77.198;2023-12-04T02:09:52;5.35;;;3.92;;
50104;SDS011;47690;39.202;-77.198;2023-12-04T02:12:44;6.03;;;4.15;;
50104;SDS011;47690;39.202;-77.198;2023-12-04T02:15:36;5.13;;;3.85;;
50104;SDS011;47690;39.202;-77.198;2023-12-04T02:18:25;3.95;;;3.35;;
50104;SDS011;47690;39.202;-77.198;2023-12-04T02:21:15;6.97;;;3.67;;
50104;SDS011;47690;39.202;-77.198;2023-12-04T02:24:04;4.55;;;3.10;;
50104;SDS011;47690;39.202;-77.198;2023-12-04T02:30:05;3.45;;;2.50;;
50104;SDS011;47690;39.202;-77.198;2023-12-04T02:33:07;2.55;;;2.30;;
50104;SDS011;47690;39.202;-77.198;2023-12-04T02:36:01;2.80;;;2.40;;
50104;SDS011;47690;39.202;-77.198;2023-12-04T02:38:58;2.40;;;2.20;;
50104;SDS011;47690;39.202;-77.198;2023-12-04T02:41:49;3.20;;;2.20;;
50104;SDS011;47690;39.202;-77.198;2023-12-04T02:44:40;2.20;;;2.00;;
50104;SDS011;47690;39.202;-77.198;2023-12-04T02:47:34;3.13;;;2.10;;
50104;SDS011;47690;39.202;-77.198;2023-12-04T02:50:24;2.08;;;1.88;;
50104;SDS011;47690;39.202;-77.198;2023-12-04T02:53:19;1.75;;;1.65;;
50104;SDS011;47690;39.202;-77.198;2023-12-04T02:56:10;2.17;;;1.77;;
50104;SDS011;47690;39.202;-77.198;2023-12-04T02:59:06;1.85;;;1.75;;
50104;SDS011;47690;39.202;-77.198;2023-12-04T03:01:58;1.70;;;1.60;;
50104;SDS011;47690;39.202;-77.198;2023-12-04T03:04:47;1.80;;;1.70;;
50104;SDS011;47690;39.202;-77.198;2023-12-04T03:07:38;1.83;;;1.70;;
50104;SDS011;47690;39.202;-77.198;2023-12-04T03:10:27;2.00;;;1.80;;
50104;SDS011;47690;39.202;-77.198;2023-12-04T03:13:19;2.15;;;1.90;;
50104;SDS011;47690;39.202;-77.198;2023-12-04T03:16:15;1.67;;;1.58;;
50104;SDS011;47690;39.202;-77.198;2023-12-04T03:19:07;1.67;;;1.58;;
50104;SDS011;47690;39.202;-77.198;2023-12-04T03:21:56;1.70;;;1.52;;
50104;SDS011;47690;39.202;-77.198;2023-12-04T03:24:46;3.15;;;1.67;;
50104;SDS011;47690;39.202;-77.198;2023-12-04T03:27:35;1.88;;;1.75;;
50104;SDS011;47690;39.202;-77.198;2023-12-04T03:30:32;1.67;;;1.58;;
50104;SDS011;47690;39.202;-77.198;2023-12-04T03:33:28;2.15;;;1.67;;
50104;SDS011;47690;39.202;-77.198;2023-12-04T03:36:19;2.55;;;1.70;;
50104;SDS011;47690;39.202;-77.198;2023-12-04T03:39:10;1.60;;;1.50;;
50104;SDS011;47690;39.202;-77.198;2023-12-04T03:41:59;1.80;;;1.52;;
50104;SDS011;47690;39.202;-77.198;2023-12-04T03:44:49;1.60;;;1.50;;
50104;SDS011;47690;39.202;-77.198;2023-12-04T03:47:37;1.70;;;1.60;;
50104;SDS011;47690;39.202;-77.198;2023-12-04T03:50:35;1.83;;;1.67;;
50104;SDS011;47690;39.202;-77.198;2023-12-04T03:53:27;1.70;;;1.60;;
50104;SDS011;47690;39.202;-77.198;2023-12-04T03:56:17;1.65;;;1.55;;
50104;SDS011;47690;39.202;-77.198;2023-12-04T03:59:08;2.08;;;1.75;;
50104;SDS011;47690;39.202;-77.198;2023-12-04T04:01:58;2.38;;;1.50;;
50104;SDS011;47690;39.202;-77.198;2023-12-04T04:04:47;2.03;;;1.50;;
50104;SDS011;47690;39.202;-77.198;2023-12-04T04:07:39;2.05;;;1.83;;
50104;SDS011;47690;39.202;-77.198;2023-12-04T04:10:31;2.00;;;1.70;;
50104;SDS011;47690;39.202;-77.198;2023-12-04T04:13:22;2.00;;;1.80;;
50104;SDS011;47690;39.202;-77.198;2023-12-04T04:16:14;1.80;;;1.70;;
50104;SDS011;47690;39.202;-77.198;2023-12-04T04:19:05;2.42;;;2.08;;
50104;SDS011;47690;39.202;-77.198;2023-12-04T04:21:56;2.47;;;1.90;;
50104;SDS011;47690;39.202;-77.198;2023-12-04T04:24:47;2.15;;;1.95;;
50104;SDS011;47690;39.202;-77.198;2023-12-04T04:27:37;2.13;;;1.85;;
50104;SDS011;47690;39.202;-77.198;2023-12-04T04:30:26;2.28;;;2.00;;
50104;SDS011;47690;39.202;-77.198;2023-12-04T04:33:17;3.10;;;2.03;;
50104;SDS011;47690;39.202;-77.198;2023-12-04T04:36:09;2.13;;;1.92;;
50104;SDS011;47690;39.202;-77.198;2023-12-04T04:38:59;2.78;;;2.00;;
50104;SDS011;47690;39.202;-77.198;2023-12-04T04:41:50;2.30;;;2.10;;
50104;SDS011;47690;39.202;-77.198;2023-12-04T04:44:45;2.20;;;2.00;;
50104;SDS011;47690;39.202;-77.198;2023-12-04T04:47:34;2.15;;;1.95;;
50104;SDS011;47690;39.202;-77.198;2023-12-04T04:50:26;2.78;;;2.30;;
50104;SDS011;47690;39.202;-77.198;2023-12-04T04:53:15;2.90;;;2.20;;
50104;SDS011;47690;39.202;-77.198;2023-12-04T04:56:07;2.63;;;2.20;;
50104;SDS011;47690;39.202;-77.198;2023-12-04T04:58:56;2.42;;;2.22;;
50104;SDS011;47690;39.202;-77.198;2023-12-04T05:01:54;3.30;;;2.38;;
50104;SDS011;47690;39.202;-77.198;2023-12-04T05:04:51;2.80;;;2.20;;
50104;SDS011;47690;39.202;-77.198;2023-12-04T05:07:41;2.53;;;2.30;;
50104;SDS011;47690;39.202;-77.198;2023-12-04T05:10:30;3.83;;;2.13;;
50104;SDS011;47690;39.202;-77.198;2023-12-04T05:13:19;2.97;;;2.30;;
50104;SDS011;47690;39.202;-77.198;2023-12-04T05:19:05;2.30;;;2.10;;
50104;SDS011;47690;39.202;-77.198;2023-12-04T05:21:58;2.10;;;1.90;;
50104;SDS011;47690;39.202;-77.198;2023-12-04T05:24:49;2.08;;;1.88;;
50104;SDS011;47690;39.202;-77.198;2023-12-04T05:27:38;2.22;;;2.03;;
50104;SDS011;47690;39.202;-77.198;2023-12-04T05:30:29;1.73;;;1.63;;
50104;SDS011;47690;39.202;-77.198;2023-12-04T05:33:26;2.17;;;1.85;;
50104;SDS011;47690;39.202;-77.198;2023-12-04T05:36:27;1.90;;;1.80;;
50104;SDS011;47690;39.202;-77.198;2023-12-04T05:39:17;2.20;;;1.90;;
50104;SDS011;47690;39.202;-77.198;2023-12-04T05:42:07;2.03;;;1.73;;
50104;SDS011;47690;39.202;-77.198;2023-12-04T05:44:56;1.75;;;1.65;;
50104;SDS011;47690;39.202;-77.198;2023-12-04T05:47:47;2.30;;;1.80;;
50104;SDS011;47690;39.202;-77.198;2023-12-04T05:50:37;1.75;;;1.65;;
50104;SDS011;47690;39.202;-77.198;2023-12-04T05:53:32;1.90;;;1.80;;
50104;SDS011;47690;39.202;-77.198;2023-12-04T05:56:28;1.88;;;1.77;;
50104;SDS011;47690;39.202;-77.198;2023-12-04T05:59:19;2.00;;;1.80;;
50104;SDS011;47690;39.202;-77.198;2023-12-04T06:02:09;2.00;;;1.80;;
50104;SDS011;47690;39.202;-77.198;2023-12-04T06:04:59;1.83;;;1.73;;
50104;SDS011;47690;39.202;-77.198;2023-12-04T06:07:49;2.03;;;1.73;;
50104;SDS011;47690;39.202;-77.198;2023-12-04T06:10:38;1.92;;;1.83;;
50104;SDS011;47690;39.202;-77.198;2023-12-04T06:13:28;3.40;;;2.17;;
50104;SDS011;47690;39.202;-77.198;2023-12-04T06:16:17;1.98;;;1.80;;
50104;SDS011;47690;39.202;-77.198;2023-12-04T06:19:08;1.83;;;1.70;;
50104;SDS011;47690;39.202;-77.198;2023-12-04T06:21:57;3.78;;;2.00;;
50104;SDS011;47690;39.202;-77.198;2023-12-04T06:24:47;1.90;;;1.80;;
50104;SDS011;47690;39.202;-77.198;2023-12-04T06:27:37;1.90;;;1.80;;
50104;SDS011;47690;39.202;-77.198;2023-12-04T06:30:28;1.85;;;1.73;;
50104;SDS011;47690;39.202;-77.198;2023-12-04T06:33:20;2.65;;;1.90;;
50104;SDS011;47690;39.202;-77.198;2023-12-04T06:36:20;1.80;;;1.67;;
50104;SDS011;47690;39.202;-77.198;2023-12-04T06:39:12;1.92;;;1.83;;
50104;SDS011;47690;39.202;-77.198;2023-12-04T06:42:08;1.95;;;1.75;;
50104;SDS011;47690;39.202;-77.198;2023-12-04T06:44:58;2.10;;;1.90;;
50104;SDS011;47690;39.202;-77.198;2023-12-04T06:47:48;2.00;;;1.80;;
50104;SDS011;47690;39.202;-77.198;2023-12-04T06:50:40;2.20;;;2.00;;
50104;SDS011;47690;39.202;-77.198;2023-12-04T06:53:36;2.05;;;1.90;;
50104;SDS011;47690;39.202;-77.198;2023-12-04T06:56:34;2.08;;;1.98;;
50104;SDS011;47690;39.202;-77.198;2023-12-04T06:59:46;1.88;;;1.77;;
50104;SDS011;47690;39.202;-77.198;2023-12-04T07:02:35;2.20;;;2.00;;
50104;SDS011;47690;39.202;-77.198;2023-12-04T07:05:27;1.90;;;1.80;;
50104;SDS011;47690;39.202;-77.198;2023-12-04T07:08:16;2.20;;;2.00;;
50104;SDS011;47690;39.202;-77.198;2023-12-04T07:11:06;2.72;;;1.63;;
50104;SDS011;47690;39.202;-77.198;2023-12-04T07:13:56;1.90;;;1.80;;
50104;SDS011;47690;39.202;-77.198;2023-12-04T07:16:52;2.22;;;2.03;;
50104;SDS011;47690;39.202;-77.198;2023-12-04T07:19:42;2.03;;;1.83;;
50104;SDS011;47690;39.202;-77.198;2023-12-04T07:22:43;2.33;;;2.13;;
50104;SDS011;47690;39.202;-77.198;2023-12-04T07:25:46;2.22;;;1.90;;
50104;SDS011;47690;39.202;-77.198;2023-12-04T07:28:36;2.25;;;1.88;;
50104;SDS011;47690;39.202;-77.198;2023-12-04T07:31:38;2.30;;;1.98;;
50104;SDS011;47690;39.202;-77.198;2023-12-04T07:34:35;2.05;;;1.85;;
50104;SDS011;47690;39.202;-77.198;2023-12-04T07:37:28;2.25;;;2.05;;
50104;SDS011;47690;39.202;-77.198;2023-12-04T07:40:19;2.80;;;2.10;;
50104;SDS011;47690;39.202;-77.198;2023-12-04T07:43:13;2.67;;;2.00;;
50104;SDS011;47690;39.202;-77.198;2023-12-04T07:46:06;2.50;;;2.20;;
50104;SDS011;47690;39.202;-77.198;2023-12-04T07:49:03;2.30;;;2.10;;
50104;SDS011;47690;39.202;-77.198;2023-12-04T07:51:55;2.65;;;2.25;;
50104;SDS011;47690;39.202;-77.198;2023-12-04T07:54:55;3.15;;;2.30;;
50104;SDS011;47690;39.202;-77.198;2023-12-04T07:57:45;2.53;;;2.13;;
50104;SDS011;47690;39.202;-77.198;2023-12-04T08:00:36;2.50;;;2.10;;
50104;SDS011;47690;39.202;-77.198;2023-12-04T08:03:26;2.78;;;2.20;;
50104;SDS011;47690;39.202;-77.198;2023-12-04T08:06:20;2.38;;;2.17;;
50104;SDS011;47690;39.202;-77.198;2023-12-04T08:09:10;2.80;;;2.30;;
50104;SDS011;47690;39.202;-77.198;2023-12-04T08:11:59;2.30;;;2.00;;
50104;SDS011;47690;39.202;-77.198;2023-12-04T08:14:47;2.40;;;2.20;;
50104;SDS011;47690;39.202;-77.198;2023-12-04T08:17:36;2.33;;;2.08;;
50104;SDS011;47690;39.202;-77.198;2023-12-04T08:20:27;2.33;;;2.13;;
50104;SDS011;47690;39.202;-77.198;2023-12-04T08:23:26;2.30;;;2.10;;
50104;SDS011;47690;39.202;-77.198;2023-12-04T08:26:22;2.33;;;2.10;;
50104;SDS011;47690;39.202;-77.198;2023-12-04T08:29:12;2.08;;;1.88;;
50104;SDS011;47690;39.202;-77.198;2023-12-04T08:32:06;2.83;;;2.20;;
50104;SDS011;47690;39.202;-77.198;2023-12-04T08:34:57;2.50;;;2.25;;
50104;SDS011;47690;39.202;-77.198;2023-12-04T08:37:46;2.60;;;2.30;;
50104;SDS011;47690;39.202;-77.198;2023-12-04T08:40:36;2.38;;;2.17;;
50104;SDS011;47690;39.202;-77.198;2023-12-04T08:43:26;2.45;;;2.20;;
50104;SDS011;47690;39.202;-77.198;2023-12-04T08:46:21;2.92;;;2.47;;
50104;SDS011;47690;39.202;-77.198;2023-12-04T08:49:10;2.40;;;2.13;;
50104;SDS011;47690;39.202;-77.198;2023-12-04T08:52:09;2.40;;;2.20;;
50104;SDS011;47690;39.202;-77.198;2023-12-04T08:54:59;3.05;;;2.40;;
50104;SDS011;47690;39.202;-77.198;2023-12-04T08:57:49;2.20;;;2.00;;
50104;SDS011;47690;39.202;-77.198;2023-12-04T09:00:39;2.40;;;2.20;;
50104;SDS011;47690;39.202;-77.198;2023-12-04T09:03:31;2.63;;;2.20;;
50104;SDS011;47690;39.202;-77.198;2023-12-04T09:06:25;2.58;;;2.20;;
50104;SDS011;47690;39.202;-77.198;2023-12-04T09:09:18;2.45;;;2.20;;
50104;SDS011;47690;39.202;-77.198;2023-12-04T09:12:07;2.75;;;2.35;;
50104;SDS011;47690;39.202;-77.198;2023-12-04T09:14:59;2.50;;;2.30;;
50104;SDS011;47690;39.202;-77.198;2023-12-04T09:17:50;2.75;;;2.20;;
50104;SDS011;47690;39.202;-77.198;2023-12-04T09:20:40;2.40;;;2.20;;
50104;SDS011;47690;39.202;-77.198;2023-12-04T09:23:29;2.65;;;2.22;;
50104;SDS011;47690;39.202;-77.198;2023-12-04T09:26:21;2.60;;;2.40;;
50104;SDS011;47690;39.202;-77.198;2023-12-04T09:29:11;2.40;;;2.20;;
50104;SDS011;47690;39.202;-77.198;2023-12-04T09:32:03;3.45;;;2.35;;
50104;SDS011;47690;39.202;-77.198;2023-12-04T09:35:10;2.30;;;2.10;;
50104;SDS011;47690;39.202;-77.198;2023-12-04T09:38:02;2.60;;;2.38;;
50104;SDS011;47690;39.202;-77.198;2023-12-04T09:40:51;2.33;;;2.13;;
50104;SDS011;47690;39.202;-77.198;2023-12-04T09:43:50;2.42;;;2.20;;
50104;SDS011;47690;39.202;-77.198;2023-12-04T09:46:43;2.30;;;2.00;;
50104;SDS011;47690;39.202;-77.198;2023-12-04T09:49:32;2.65;;;2.03;;
50104;SDS011;47690;39.202;-77.198;2023-12-04T09:52:24;2.55;;;2.35;;
50104;SDS011;47690;39.202;-77.198;2023-12-04T09:55:19;2.55;;;2.15;;
50104;SDS011;47690;39.202;-77.198;2023-12-04T09:58:08;3.63;;;2.50;;
50104;SDS011;47690;39.202;-77.198;2023-12-04T10:01:03;2.30;;;2.10;;
50104;SDS011;47690;39.202;-77.198;2023-12-04T10:03:57;2.47;;;2.10;;
50104;SDS011;47690;39.202;-77.198;2023-12-04T10:06:53;2.30;;;2.10;;
50104;SDS011;47690;39.202;-77.198;2023-12-04T10:09:47;4.05;;;2.53;;
50104;SDS011;47690;39.202;-77.198;2023-12-04T10:12:36;2.40;;;2.20;;
50104;SDS011;47690;39.202;-77.198;2023-12-04T10:15:26;2.47;;;2.28;;
50104;SDS011;47690;39.202;-77.198;2023-12-04T10:18:29;2.65;;;2.28;;
50104;SDS011;47690;39.202;-77.198;2023-12-04T10:21:34;2.38;;;2.17;;
50104;SDS011;47690;39.202;-77.198;2023-12-04T10:24:38;2.45;;;2.10;;
50104;SDS011;47690;39.202;-77.198;2023-12-04T10:27:27;2.40;;;2.20;;
50104;SDS011;47690;39.202;-77.198;2023-12-04T10:30:22;2.22;;;2.03;;
50104;SDS011;47690;39.202;-77.198;2023-12-04T10:33:21;2.30;;;2.10;;
50104;SDS011;47690;39.202;-77.198;2023-12-04T10:36:18;2.40;;;2.20;;
50104;SDS011;47690;39.202;-77.198;2023-12-04T10:39:08;2.38;;;2.17;;
50104;SDS011;47690;39.202;-77.198;2023-12-04T10:42:07;2.35;;;2.10;;
50104;SDS011;47690;39.202;-77.198;2023-12-04T10:44:57;2.35;;;2.13;;
50104;SDS011;47690;39.202;-77.198;2023-12-04T10:47:47;4.03;;;2.25;;
50104;SDS011;47690;39.202;-77.198;2023-12-04T10:50:43;2.75;;;2.40;;
50104;SDS011;47690;39.202;-77.198;2023-12-04T10:53:37;2.28;;;2.08;;
50104;SDS011;47690;39.202;-77.198;2023-12-04T10:56:33;2.80;;;1.98;;
50104;SDS011;47690;39.202;-77.198;2023-12-04T10:59:28;2.33;;;1.95;;
50104;SDS011;47690;39.202;-77.198;2023-12-04T11:02:25;2.40;;;2.20;;
50104;SDS011;47690;39.202;-77.198;2023-12-04T11:08:11;2.10;;;1.90;;
50104;SDS011;47690;39.202;-77.198;2023-12-04T11:11:06;2.15;;;1.95;;
50104;SDS011;47690;39.202;-77.198;2023-12-04T11:14:04;2.08;;;1.83;;
50104;SDS011;47690;39.202;-77.198;2023-12-04T11:16:57;2.20;;;2.00;;
50104;SDS011;47690;39.202;-77.198;2023-12-04T11:20:02;2.20;;;2.00;;
50104;SDS011;47690;39.202;-77.198;2023-12-04T11:23:02;3.05;;;2.20;;
50104;SDS011;47690;39.202;-77.198;2023-12-04T11:25:58;2.40;;;2.20;;
50104;SDS011;47690;39.202;-77.198;2023-12-04T11:28:50;2.20;;;1.90;;
50104;SDS011;47690;39.202;-77.198;2023-12-04T11:31:42;2.10;;;1.90;;
50104;SDS011;47690;39.202;-77.198;2023-12-04T11:34:34;2.60;;;2.00;;
50104;SDS011;47690;39.202;-77.198;2023-12-04T11:37:27;2.10;;;1.90;;
50104;SDS011;47690;39.202;-77.198;2023-12-04T11:40:16;2.10;;;1.90;;
50104;SDS011;47690;39.202;-77.198;2023-12-04T11:43:23;2.30;;;2.00;;
50104;SDS011;47690;39.202;-77.198;2023-12-04T11:46:21;2.13;;;1.90;;
50104;SDS011;47690;39.202;-77.198;2023-12-04T11:49:31;2.20;;;2.00;;
50104;SDS011;47690;39.202;-77.198;2023-12-04T11:52:33;2.33;;;2.10;;
50104;SDS011;47690;39.202;-77.198;2023-12-04T11:55:25;2.20;;;2.00;;
50104;SDS011;47690;39.202;-77.198;2023-12-04T11:58:17;2.13;;;1.92;;
50104;SDS011;47690;39.202;-77.198;2023-12-04T12:01:06;2.85;;;2.08;;
50104;SDS011;47690;39.202;-77.198;2023-12-04T12:03:57;2.30;;;2.00;;
50104;SDS011;47690;39.202;-77.198;2023-12-04T12:06:47;2.85;;;1.90;;
50104;SDS011;47690;39.202;-77.198;2023-12-04T12:09:37;2.03;;;1.83;;
50104;SDS011;47690;39.202;-77.198;2023-12-04T12:12:27;2.22;;;2.00;;
50104;SDS011;47690;39.202;-77.198;2023-12-04T12:15:17;2.60;;;2.13;;
50104;SDS011;47690;39.202;-77.198;2023-12-04T12:18:06;2.20;;;2.00;;
50104;SDS011;47690;39.202;-77.198;2023-12-04T12:20:57;1.70;;;1.60;;
50104;SDS011;47690;39.202;-77.198;2023-12-04T12:23:46;2.33;;;2.05;;
50104;SDS011;47690;39.202;-77.198;2023-12-04T12:26:37;2.70;;;2.20;;
50104;SDS011;47690;39.202;-77.198;2023-12-04T12:29:26;3.17;;;2.08;;
50104;SDS011;47690;39.202;-77.198;2023-12-04T12:32:16;2.17;;;1.98;;
50104;SDS011;47690;39.202;-77.198;2023-12-04T12:35:07;2.17;;;1.90;;
50104;SDS011;47690;39.202;-77.198;2023-12-04T12:37:57;2.08;;;1.80;;
50104;SDS011;47690;39.202;-77.198;2023-12-04T12:40:46;2.20;;;1.98;;
50104;SDS011;47690;39.202;-77.198;2023-12-04T12:43:37;2.10;;;1.90;;
50104;SDS011;47690;39.202;-77.198;2023-12-04T12:46:27;2.20;;;2.00;;
50104;SDS011;47690;39.202;-77.198;2023-12-04T12:49:18;2.10;;;1.90;;
50104;SDS011;47690;39.202;-77.198;2023-12-04T12:52:26;2.20;;;2.00;;
50104;SDS011;47690;39.202;-77.198;2023-12-04T12:55:23;2.03;;;1.83;;
50104;SDS011;47690;39.202;-77.198;2023-12-04T12:58:17;2.20;;;2.00;;
50104;SDS011;47690;39.202;-77.198;2023-12-04T13:01:11;2.25;;;1.98;;
50104;SDS011;47690;39.202;-77.198;2023-12-04T13:04:13;2.97;;;1.95;;
50104;SDS011;47690;39.202;-77.198;2023-12-04T13:07:11;2.30;;;2.10;;
50104;SDS011;47690;39.202;-77.198;2023-12-04T13:10:04;2.30;;;2.10;;
50104;SDS011;47690;39.202;-77.198;2023-12-04T13:12:56;2.10;;;1.90;;
50104;SDS011;47690;39.202;-77.198;2023-12-04T13:15:48;2.08;;;1.88;;
50104;SDS011;47690;39.202;-77.198;2023-12-04T13:18:41;1.92;;;1.83;;
50104;SDS011;47690;39.202;-77.198;2023-12-04T13:21:30;2.15;;;1.95;;
50104;SDS011;47690;39.202;-77.198;2023-12-04T13:24:23;2.05;;;1.80;;
50104;SDS011;47690;39.202;-77.198;2023-12-04T13:27:17;2.40;;;2.20;;
50104;SDS011;47690;39.202;-77.198;2023-12-04T13:30:07;2.13;;;1.85;;
50104;SDS011;47690;39.202;-77.198;2023-12-04T13:33:06;1.92;;;1.77;;
50104;SDS011;47690;39.202;-77.198;2023-12-04T13:36:00;2.58;;;2.20;;
50104;SDS011;47690;39.202;-77.198;2023-12-04T13:38:51;2.10;;;1.90;;
50104;SDS011;47690;39.202;-77.198;2023-12-04T13:41:52;2.72;;;2.03;;
50104;SDS011;47690;39.202;-77.198;2023-12-04T13:45:02;2.58;;;1.98;;
50104;SDS011;47690;39.202;-77.198;2023-12-04T13:47:53;2.30;;;2.10;;
50104;SDS011;47690;39.202;-77.198;2023-12-04T13:50:43;2.10;;;1.90;;
50104;SDS011;47690;39.202;-77.198;2023-12-04T13:53:32;2.10;;;1.95;;
50104;SDS011;47690;39.202;-77.198;2023-12-04T13:56:23;2.20;;;2.00;;
50104;SDS011;47690;39.202;-77.198;2023-12-04T13:59:13;2.22;;;2.03;;
50104;SDS011;47690;39.202;-77.198;2023-12-04T14:02:12;1.95;;;1.73;;
50104;SDS011;47690;39.202;-77.198;2023-12-04T14:05:03;2.10;;;1.90;;
50104;SDS011;47690;39.202;-77.198;2023-12-04T14:07:54;2.17;;;1.98;;
50104;SDS011;47690;39.202;-77.198;2023-12-04T14:10:44;2.10;;;1.90;;
50104;SDS011;47690;39.202;-77.198;2023-12-04T14:13:34;2.50;;;2.30;;
50104;SDS011;47690;39.202;-77.198;2023-12-04T14:16:28;2.20;;;2.00;;
50104;SDS011;47690;39.202;-77.198;2023-12-04T14:19:19;2.40;;;2.03;;
50104;SDS011;47690;39.202;-77.198;2023-12-04T14:22:10;2.10;;;1.90;;
50104;SDS011;47690;39.202;-77.198;2023-12-04T14:24:59;2.30;;;2.03;;
50104;SDS011;47690;39.202;-77.198;2023-12-04T14:27:48;2.35;;;2.15;;
50104;SDS011;47690;39.202;-77.198;2023-12-04T14:30:38;2.30;;;1.98;;
50104;SDS011;47690;39.202;-77.198;2023-12-04T14:33:29;2.40;;;2.03;;
50104;SDS011;47690;39.202;-77.198;2023-12-04T14:36:19;2.50;;;2.10;;
50104;SDS011;47690;39.202;-77.198;2023-12-04T14:39:08;2.22;;;2.00;;
50104;SDS011;47690;39.202;-77.198;2023-12-04T14:41:59;3.67;;;1.98;;
50104;SDS011;47690;39.202;-77.198;2023-12-04T14:44:49;2.22;;;2.03;;
50104;SDS011;47690;39.202;-77.198;2023-12-04T14:47:41;2.30;;;2.10;;
50104;SDS011;47690;39.202;-77.198;2023-12-04T14:50:30;3.00;;;2.00;;
50104;SDS011;47690;39.202;-77.198;2023-12-04T14:53:22;3.72;;;2.05;;
50104;SDS011;47690;39.202;-77.198;2023-12-04T14:56:22;2.63;;;2.28;;
50104;SDS011;47690;39.202;-77.198;2023-12-04T14:59:20;1.80;;;1.70;;
50104;SDS011;47690;39.202;-77.198;2023-12-04T15:02:30;1.95;;;1.85;;
50104;SDS011;47690;39.202;-77.198;2023-12-04T15:05:21;2.20;;;2.00;;
50104;SDS011;47690;39.202;-77.198;2023-12-04T15:08:17;2.20;;;2.00;;
50104;SDS011;47690;39.202;-77.198;2023-12-04T15:11:13;2.22;;;2.03;;
50104;SDS011;47690;39.202;-77.198;2023-12-04T15:14:21;2.05;;;1.90;;
50104;SDS011;47690;39.202;-77.198;2023-12-04T15:17:28;3.83;;;2.10;;
50104;SDS011;47690;39.202;-77.198;2023-12-04T15:20:18;3.17;;;2.17;;
50104;SDS011;47690;39.202;-77.198;2023-12-04T15:23:07;3.28;;;2.13;;
50104;SDS011;47690;39.202;-77.198;2023-12-04T15:25:56;2.30;;;2.10;;
50104;SDS011;47690;39.202;-77.198;2023-12-04T15:28:46;2.33;;;2.13;;
50104;SDS011;47690;39.202;-77.198;2023-12-04T15:31:38;2.33;;;2.13;;
50104;SDS011;47690;39.202;-77.198;2023-12-04T15:34:29;2.35;;;2.15;;
50104;SDS011;47690;39.202;-77.198;2023-12-04T15:37:19;2.35;;;2.05;;
50104;SDS011;47690;39.202;-77.198;2023-12-04T15:40:08;2.30;;;2.10;;
50104;SDS011;47690;39.202;-77.198;2023-12-04T15:43:00;3.25;;;1.95;;
50104;SDS011;47690;39.202;-77.198;2023-12-04T15:45:50;2.28;;;2.08;;
50104;SDS011;47690;39.202;-77.198;2023-12-04T15:48:41;2.53;;;2.10;;
50104;SDS011;47690;39.202;-77.198;2023-12-04T15:51:32;2.50;;;2.10;;
50104;SDS011;47690;39.202;-77.198;2023-12-04T15:54:22;2.20;;;2.00;;
50104;SDS011;47690;39.202;-77.198;2023-12-04T15:57:13;2.30;;;2.00;;
50104;SDS011;47690;39.202;-77.198;2023-12-04T16:03:02;2.17;;;1.80;;
50104;SDS011;47690;39.202;-77.198;2023-12-04T16:05:51;2.40;;;2.00;;
50104;SDS011;47690;39.202;-77.198;2023-12-04T16:08:41;2.38;;;1.90;;
50104;SDS011;47690;39.202;-77.198;2023-12-04T16:11:32;2.10;;;1.90;;
50104;SDS011;47690;39.202;-77.198;2023-12-04T16:14:21;2.20;;;2.00;;
50104;SDS011;47690;39.202;-77.198;2023-12-04T16:17:10;2.45;;;2.20;;
50104;SDS011;47690;39.202;-77.198;2023-12-04T16:20:01;2.30;;;2.10;;
50104;SDS011;47690;39.202;-77.198;2023-12-04T16:22:51;2.63;;;2.20;;
50104;SDS011;47690;39.202;-77.198;2023-12-04T16:25:41;2.47;;;2.20;;
50104;SDS011;47690;39.202;-77.198;2023-12-04T16:28:30;2.33;;;2.13;;
50104;SDS011;47690;39.202;-77.198;2023-12-04T16:31:20;2.53;;;2.15;;
50104;SDS011;47690;39.202;-77.198;2023-12-04T16:34:10;2.33;;;2.13;;
50104;SDS011;47690;39.202;-77.198;2023-12-04T16:37:00;2.25;;;2.05;;
50104;SDS011;47690;39.202;-77.198;2023-12-04T16:39:51;2.20;;;2.00;;
50104;SDS011;47690;39.202;-77.198;2023-12-04T16:42:40;2.42;;;2.20;;
50104;SDS011;47690;39.202;-77.198;2023-12-04T16:45:29;2.30;;;2.10;;
50104;SDS011;47690;39.202;-77.198;2023-12-04T16:48:19;2.60;;;2.30;;
50104;SDS011;47690;39.202;-77.198;2023-12-04T16:51:08;2.40;;;2.20;;
50104;SDS011;47690;39.202;-77.198;2023-12-04T16:53:58;2.20;;;2.00;;
50104;SDS011;47690;39.202;-77.198;2023-12-04T16:56:47;2.30;;;2.10;;
50104;SDS011;47690;39.202;-77.198;2023-12-04T16:59:41;2.90;;;2.40;;